createdAt,value
2018-05-06T07:49:30.850Z,13.84
2018-05-06T07:50:32.700Z,13.84
2018-05-06T07:51:34.571Z,13.97
2018-05-06T07:52:36.454Z,13.92
2018-05-06T07:53:38.279Z,13.96
2018-05-06T07:54:40.118Z,14.03
2018-05-06T07:55:41.980Z,14.00
2018-05-06T07:56:43.847Z,14.02
2018-05-06T07:57:45.717Z,14.21
2018-05-06T07:58:59.929Z,14.18
2018-05-06T08:00:01.803Z,14.37
2018-05-06T08:01:03.691Z,14.51
2018-05-06T08:02:05.567Z,14.60
2018-05-06T08:03:07.396Z,14.69
2018-05-06T08:03:55.266Z,14.78
2018-05-06T08:04:57.273Z,14.84
2018-05-06T08:05:59.144Z,14.96
2018-05-06T08:07:01.012Z,15.11
2018-05-06T08:08:02.815Z,15.21
2018-05-06T08:09:04.628Z,15.34
2018-05-06T08:10:06.499Z,15.35
2018-05-06T08:11:08.368Z,15.43
2018-05-06T08:12:10.235Z,15.51
2018-05-06T08:13:24.382Z,15.50
2018-05-06T08:14:26.247Z,15.51
2018-05-06T08:15:28.128Z,15.56
2018-05-06T08:16:30.728Z,15.49
2018-05-06T08:17:32.357Z,15.60
2018-05-06T08:18:34.187Z,15.57
2018-05-06T08:19:36.075Z,15.72
2018-05-06T08:20:37.953Z,15.74
2018-05-06T08:21:39.850Z,15.78
2018-05-06T08:22:54.066Z,15.82
2018-05-06T08:23:55.936Z,15.84
2018-05-06T08:24:57.814Z,15.97
2018-05-06T08:25:59.707Z,16.08
2018-05-06T08:27:01.514Z,16.12
2018-05-06T08:28:03.330Z,16.05
2018-05-06T08:29:05.224Z,16.00
2018-05-06T08:30:07.145Z,15.94
2018-05-06T08:31:09.105Z,15.92
2018-05-06T08:32:23.180Z,15.89
2018-05-06T08:33:25.050Z,15.83
2018-05-06T08:34:26.925Z,15.93
2018-05-06T08:35:28.792Z,15.94
2018-05-06T08:36:30.604Z,15.96
2018-05-06T08:37:32.421Z,16.05
2018-05-06T08:38:34.361Z,16.12
2018-05-06T08:39:36.187Z,16.28
2018-05-06T08:40:38.061Z,16.31
2018-05-06T08:41:52.229Z,16.35
2018-05-06T08:42:54.126Z,16.39
2018-05-06T08:43:56.019Z,16.42
2018-05-06T08:44:57.891Z,16.30
2018-05-06T08:45:59.723Z,16.43
2018-05-06T08:47:01.569Z,16.41
2018-05-06T08:48:03.473Z,16.34
2018-05-06T08:49:05.360Z,16.33
2018-05-06T08:50:07.237Z,16.31
2018-05-06T08:51:21.405Z,16.31
2018-05-06T08:52:23.273Z,16.35
2018-05-06T08:53:25.152Z,16.39
2018-05-06T08:54:27.016Z,16.45
2018-05-06T08:55:28.829Z,16.48
2018-05-06T08:56:30.642Z,16.46
2018-05-06T08:57:32.532Z,16.57
2018-05-06T08:58:34.413Z,16.56
2018-05-06T08:59:36.359Z,16.53
2018-05-06T09:00:50.457Z,16.48
2018-05-06T09:01:52.351Z,16.45
2018-05-06T09:02:54.232Z,16.43
2018-05-06T09:03:56.124Z,16.58
2018-05-06T09:04:57.954Z,16.64
2018-05-06T09:05:59.767Z,16.78
2018-05-06T09:07:01.644Z,16.85
2018-05-06T09:08:03.515Z,16.98
2018-05-06T09:09:05.408Z,16.86
2018-05-06T09:10:19.555Z,16.81
2018-05-06T09:11:21.451Z,16.83
2018-05-06T09:12:23.342Z,16.86
2018-05-06T09:13:25.211Z,16.83
2018-05-06T09:14:27.024Z,16.85
2018-05-06T09:15:28.838Z,16.86
2018-05-06T09:16:30.703Z,16.78
2018-05-06T09:17:32.584Z,16.78
2018-05-06T09:18:34.477Z,16.75
2018-05-06T09:19:48.745Z,16.81
2018-05-06T09:20:50.525Z,16.85
2018-05-06T09:21:52.413Z,16.88
2018-05-06T09:22:54.273Z,16.71
2018-05-06T09:23:56.102Z,16.58
2018-05-06T09:24:57.915Z,16.63
2018-05-06T09:25:59.790Z,16.75
2018-05-06T09:27:01.686Z,16.76
2018-05-06T09:28:03.585Z,16.82
2018-05-06T09:29:17.756Z,16.88
2018-05-06T09:30:19.622Z,17.04
2018-05-06T09:31:21.500Z,17.04
2018-05-06T09:32:23.483Z,17.07
2018-05-06T09:33:25.224Z,17.12
2018-05-06T09:34:27.054Z,17.18
2018-05-06T09:35:28.926Z,17.15
2018-05-06T09:36:30.805Z,17.14
2018-05-06T09:37:32.695Z,17.11
2018-05-06T09:38:46.843Z,17.11
2018-05-06T09:39:48.739Z,17.07
2018-05-06T09:40:50.641Z,17.00
2018-05-06T09:41:52.525Z,17.00
2018-05-06T09:42:54.335Z,16.98
2018-05-06T09:43:56.152Z,16.98
2018-05-06T09:44:58.044Z,16.94
2018-05-06T09:45:59.923Z,16.97
2018-05-06T09:47:01.808Z,17.06
2018-05-06T09:48:15.960Z,17.16
2018-05-06T09:49:17.861Z,17.28
2018-05-06T09:50:19.757Z,17.25
2018-05-06T09:51:21.652Z,17.41
2018-05-06T09:52:23.487Z,17.37
2018-05-06T09:53:25.331Z,17.36
2018-05-06T09:54:27.220Z,17.41
2018-05-06T09:55:29.110Z,17.31
2018-05-06T09:56:31.005Z,17.30
2018-05-06T09:57:45.202Z,17.31
2018-05-06T09:58:47.075Z,17.30
2018-05-06T09:59:48.974Z,17.38
2018-05-06T10:00:50.843Z,17.33
2018-05-06T10:01:52.667Z,17.48
2018-05-06T10:02:54.510Z,17.51
2018-05-06T10:03:56.408Z,17.40
2018-05-06T10:04:58.258Z,17.30
2018-05-06T10:06:00.070Z,17.23
2018-05-06T10:07:14.242Z,17.33
2018-05-06T10:08:16.193Z,17.44
2018-05-06T10:09:18.233Z,17.33
2018-05-06T10:10:20.130Z,17.36
2018-05-06T10:11:21.965Z,17.34
2018-05-06T10:12:23.776Z,17.34
2018-05-06T10:13:25.648Z,17.33
2018-05-06T10:14:27.518Z,17.25
2018-05-06T10:15:29.393Z,17.28
2018-05-06T10:16:43.558Z,17.25
2018-05-06T10:17:45.435Z,17.28
2018-05-06T10:18:47.310Z,17.25
2018-05-06T10:19:49.228Z,17.36
2018-05-06T10:20:51.030Z,17.26
2018-05-06T10:21:52.843Z,17.41
2018-05-06T10:22:54.735Z,17.54
2018-05-06T10:23:56.612Z,17.66
2018-05-06T10:24:58.512Z,17.63
2018-05-06T10:26:12.739Z,17.58
2018-05-06T10:27:14.526Z,17.58
2018-05-06T10:28:16.403Z,17.55
2018-05-06T10:29:18.297Z,17.51
2018-05-06T10:30:20.112Z,17.41
2018-05-06T10:31:21.945Z,17.56
2018-05-06T10:32:23.843Z,17.55
2018-05-06T10:33:25.743Z,17.54
2018-05-06T10:34:27.637Z,17.68
2018-05-06T10:35:41.781Z,17.68
2018-05-06T10:36:43.673Z,17.81
2018-05-06T10:37:45.575Z,17.66
2018-05-06T10:38:47.464Z,17.82
2018-05-06T10:39:49.300Z,17.86
2018-05-06T10:40:51.110Z,17.97
2018-05-06T10:41:52.987Z,18.07
2018-05-06T10:42:54.856Z,18.05
2018-05-06T10:43:56.844Z,18.05
2018-05-06T10:45:10.893Z,18.05
2018-05-06T10:46:12.766Z,18.00
2018-05-06T10:47:14.675Z,18.05
2018-05-06T10:48:16.547Z,17.95
2018-05-06T10:49:18.477Z,18.07
2018-05-06T10:50:20.294Z,17.99
2018-05-06T10:51:22.145Z,18.03
2018-05-06T10:52:24.040Z,17.95
2018-05-06T10:53:25.986Z,18.08
2018-05-06T10:54:40.238Z,18.03
2018-05-06T10:55:42.128Z,17.97
2018-05-06T10:56:44.018Z,18.03
2018-05-06T10:57:45.966Z,18.00
2018-05-06T10:58:47.738Z,18.10
2018-05-06T10:59:49.576Z,18.05
2018-05-06T11:00:51.487Z,17.93
2018-05-06T11:01:53.404Z,18.00
2018-05-06T11:02:55.296Z,18.03
2018-05-06T11:04:09.467Z,18.08
2018-05-06T11:05:11.353Z,18.14
2018-05-06T11:06:13.633Z,18.17
2018-05-06T11:07:15.501Z,18.15
2018-05-06T11:08:17.338Z,18.14
2018-05-06T11:09:19.144Z,18.17
2018-05-06T11:10:21.060Z,18.20
2018-05-06T11:11:22.927Z,18.18
2018-05-06T11:12:24.821Z,18.25
2018-05-06T11:13:38.999Z,18.25
2018-05-06T11:14:40.983Z,18.32
2018-05-06T11:15:42.898Z,18.39
2018-05-06T11:16:44.775Z,18.41
2018-05-06T11:17:46.661Z,18.51
2018-05-06T11:18:48.442Z,18.45
2018-05-06T11:19:50.326Z,18.36
2018-05-06T11:20:52.201Z,18.36
2018-05-06T11:21:54.074Z,18.29
2018-05-06T11:23:08.246Z,18.30
2018-05-06T11:24:10.136Z,18.37
2018-05-06T11:25:12.025Z,18.30
2018-05-06T11:26:13.944Z,18.20
2018-05-06T11:27:15.746Z,18.18
2018-05-06T11:28:17.521Z,18.23
2018-05-06T11:29:19.421Z,18.27
2018-05-06T11:30:21.314Z,18.35
2018-05-06T11:31:23.190Z,18.36
2018-05-06T11:32:37.383Z,18.48
2018-05-06T11:33:39.264Z,18.69
2018-05-06T11:34:41.151Z,18.76
2018-05-06T11:35:43.024Z,18.66
2018-05-06T11:36:44.856Z,18.48
2018-05-06T11:37:46.671Z,18.39
2018-05-06T11:38:48.540Z,18.44
2018-05-06T11:39:50.437Z,18.42
2018-05-06T11:40:52.337Z,18.45
2018-05-06T11:42:06.480Z,18.50
2018-05-06T11:43:08.342Z,18.62
2018-05-06T11:44:10.220Z,18.70
2018-05-06T11:45:12.361Z,18.72
2018-05-06T11:46:14.175Z,18.82
2018-05-06T11:47:16.007Z,18.81
2018-05-06T11:48:17.887Z,18.91
2018-05-06T11:49:19.779Z,18.95
2018-05-06T11:50:21.656Z,18.92
2018-05-06T11:51:36.117Z,18.81
2018-05-06T11:52:37.987Z,18.76
2018-05-06T11:53:40.089Z,18.73
2018-05-06T11:54:41.975Z,18.70
2018-05-06T11:55:43.790Z,18.76
2018-05-06T11:56:45.622Z,18.85
2018-05-06T11:57:47.498Z,18.87
2018-05-06T11:58:49.373Z,19.08
2018-05-06T11:59:51.268Z,19.11
2018-05-06T12:01:05.433Z,18.99
2018-05-06T12:02:07.306Z,18.90
2018-05-06T12:03:09.180Z,18.85
2018-05-06T12:04:11.274Z,18.81
2018-05-06T12:05:13.110Z,18.82
2018-05-06T12:06:14.945Z,18.80
2018-05-06T12:07:16.845Z,18.88
2018-05-06T12:08:18.766Z,18.75
2018-05-06T12:09:20.652Z,18.82
2018-05-06T12:10:34.793Z,18.85
2018-05-06T12:11:36.689Z,18.82
2018-05-06T12:12:38.567Z,18.80
2018-05-06T12:13:40.541Z,18.84
2018-05-06T12:14:42.319Z,18.73
2018-05-06T12:15:44.129Z,18.76
2018-05-06T12:16:46.005Z,18.80
2018-05-06T12:17:47.905Z,18.87
2018-05-06T12:18:49.794Z,18.85
2018-05-06T12:20:03.942Z,18.92
2018-05-06T12:21:05.809Z,18.92
2018-05-06T12:22:07.695Z,18.91
2018-05-06T12:23:09.580Z,19.06
2018-05-06T12:24:11.394Z,19.07
2018-05-06T12:25:13.206Z,19.13
2018-05-06T12:26:15.101Z,19.13
2018-05-06T12:27:16.978Z,19.08
2018-05-06T12:28:18.844Z,19.07
2018-05-06T12:29:32.993Z,19.11
2018-05-06T12:30:34.896Z,18.94
2018-05-06T12:31:36.766Z,18.90
2018-05-06T12:32:38.659Z,18.85
2018-05-06T12:33:40.481Z,18.85
2018-05-06T12:34:42.284Z,18.84
2018-05-06T12:35:44.160Z,18.92
2018-05-06T12:36:46.030Z,18.99
2018-05-06T12:37:47.903Z,19.07
2018-05-06T12:39:02.120Z,19.00
2018-05-06T12:40:04.007Z,19.10
2018-05-06T12:41:05.890Z,19.06
2018-05-06T12:42:07.763Z,19.16
2018-05-06T12:43:09.676Z,19.08
2018-05-06T12:44:11.413Z,19.10
2018-05-06T12:45:13.304Z,19.07
2018-05-06T12:46:15.179Z,19.16
2018-05-06T12:47:17.050Z,19.06
2018-05-06T12:48:31.197Z,19.22
2018-05-06T12:49:33.138Z,19.18
2018-05-06T12:50:34.969Z,19.18
2018-05-06T12:51:36.938Z,19.26
2018-05-06T12:52:38.807Z,19.22
2018-05-06T12:53:40.617Z,19.23
2018-05-06T12:54:42.486Z,19.29
2018-05-06T12:55:44.358Z,19.43
2018-05-06T12:56:46.233Z,19.43
2018-05-06T12:58:00.432Z,19.48
2018-05-06T12:59:02.326Z,19.56
2018-05-06T13:00:04.206Z,19.62
2018-05-06T13:01:06.097Z,19.74
2018-05-06T13:02:07.916Z,19.66
2018-05-06T13:03:09.744Z,19.63
2018-05-06T13:04:11.622Z,19.56
2018-05-06T13:05:13.516Z,19.50
2018-05-06T13:06:15.389Z,19.56
2018-05-06T13:07:29.540Z,19.40
2018-05-06T13:08:31.407Z,19.39
2018-05-06T13:09:33.282Z,19.39
2018-05-06T13:10:35.173Z,19.44
2018-05-06T13:11:36.989Z,19.47
2018-05-06T13:12:38.822Z,19.37
2018-05-06T13:13:40.695Z,19.43
2018-05-06T13:14:42.573Z,19.32
2018-05-06T13:15:44.440Z,19.21
2018-05-06T13:16:58.613Z,19.29
2018-05-06T13:18:00.504Z,19.31
2018-05-06T13:19:02.583Z,19.40
2018-05-06T13:20:04.457Z,19.56
2018-05-06T13:21:06.275Z,19.61
2018-05-06T13:22:08.088Z,19.61
2018-05-06T13:23:09.981Z,19.63
2018-05-06T13:24:12.007Z,19.71
2018-05-06T13:25:13.723Z,19.69
2018-05-06T13:26:27.875Z,19.71
2018-05-06T13:27:29.741Z,19.65
2018-05-06T13:28:31.621Z,19.65
2018-05-06T13:29:33.519Z,19.59
2018-05-06T13:30:35.319Z,19.50
2018-05-06T13:31:37.131Z,19.41
2018-05-06T13:32:38.942Z,19.50
2018-05-06T13:33:40.756Z,19.51
2018-05-06T13:34:42.569Z,19.54
2018-05-06T13:35:56.718Z,19.56
2018-05-06T13:36:58.623Z,19.59
2018-05-06T13:38:00.501Z,19.63
2018-05-06T13:39:02.402Z,19.80
2018-05-06T13:40:04.232Z,19.80
2018-05-06T13:41:06.049Z,19.91
2018-05-06T13:42:07.965Z,19.91
2018-05-06T13:43:09.839Z,19.88
2018-05-06T13:44:11.733Z,19.91
2018-05-06T13:45:25.878Z,19.83
2018-05-06T13:46:27.746Z,19.81
2018-05-06T13:47:29.626Z,19.80
2018-05-06T13:48:31.517Z,19.68
2018-05-06T13:49:33.360Z,19.65
2018-05-06T13:50:35.187Z,19.66
2018-05-06T13:51:37.062Z,19.73
2018-05-06T13:52:38.938Z,19.83
2018-05-06T13:53:40.824Z,19.87
2018-05-06T13:54:54.973Z,20.02
2018-05-06T13:55:56.845Z,19.95
2018-05-06T13:56:58.722Z,19.84
2018-05-06T13:58:00.600Z,19.87
2018-05-06T13:59:02.414Z,19.94
2018-05-06T14:00:04.231Z,19.78
2018-05-06T14:01:06.122Z,19.71
2018-05-06T14:02:07.999Z,19.73
2018-05-06T14:03:09.875Z,19.73
2018-05-06T14:04:24.041Z,19.71
2018-05-06T14:05:25.914Z,19.66
2018-05-06T14:06:27.795Z,19.65
2018-05-06T14:07:29.684Z,19.78
2018-05-06T14:08:31.491Z,19.76
2018-05-06T14:09:33.302Z,19.78
2018-05-06T14:10:35.179Z,19.88
2018-05-06T14:11:37.050Z,20.03
2018-05-06T14:12:38.926Z,20.05
2018-05-06T14:13:53.081Z,20.10
2018-05-06T14:14:54.950Z,20.13
2018-05-06T14:15:56.918Z,20.10
2018-05-06T14:16:58.728Z,20.02
2018-05-06T14:18:00.538Z,19.99
2018-05-06T14:19:02.354Z,20.02
2018-05-06T14:20:04.235Z,19.91
2018-05-06T14:21:06.125Z,19.86
2018-05-06T14:22:08.002Z,19.83
2018-05-06T14:23:22.175Z,19.81
2018-05-06T14:24:24.068Z,19.84
2018-05-06T14:25:25.947Z,19.84
2018-05-06T14:26:27.822Z,20.01
2018-05-06T14:27:29.621Z,19.99
2018-05-06T14:28:31.434Z,20.02
2018-05-06T14:29:33.312Z,20.14
2018-05-06T14:30:35.187Z,20.23
2018-05-06T14:31:37.077Z,20.13
2018-05-06T14:32:51.299Z,20.11
2018-05-06T14:33:53.167Z,20.08
2018-05-06T14:34:55.050Z,20.01
2018-05-06T14:35:56.937Z,20.02
2018-05-06T14:36:58.745Z,19.96
2018-05-06T14:38:00.566Z,19.98
2018-05-06T14:39:02.457Z,19.96
2018-05-06T14:40:04.331Z,19.96
2018-05-06T14:41:06.204Z,19.99
2018-05-06T14:42:20.355Z,20.06
2018-05-06T14:43:22.186Z,20.08
2018-05-06T14:44:24.010Z,20.10
2018-05-06T14:45:25.906Z,20.05
2018-05-06T14:46:27.802Z,20.08
2018-05-06T14:47:29.674Z,20.05
2018-05-06T14:48:31.542Z,20.02
2018-05-06T14:49:33.326Z,20.08
2018-05-06T14:50:35.198Z,20.10
2018-05-06T14:51:49.428Z,20.16
2018-05-06T14:52:51.296Z,20.18
2018-05-06T14:53:53.174Z,20.10
2018-05-06T14:54:55.063Z,20.03
2018-05-06T14:55:56.933Z,19.99
2018-05-06T14:56:58.709Z,20.03
2018-05-06T14:58:00.584Z,19.86
2018-05-06T14:59:02.452Z,19.96
2018-05-06T15:00:04.328Z,20.03
2018-05-06T15:01:18.497Z,19.88
2018-05-06T15:02:20.366Z,19.83
2018-05-06T15:03:22.244Z,19.94
2018-05-06T15:04:24.134Z,19.92
2018-05-06T15:05:25.949Z,19.88
2018-05-06T15:06:27.786Z,19.84
2018-05-06T15:07:29.660Z,19.98
2018-05-06T15:08:31.553Z,19.99
2018-05-06T15:09:33.431Z,19.96
2018-05-06T15:10:47.574Z,19.98
2018-05-06T15:11:49.439Z,19.99
2018-05-06T15:12:51.320Z,19.95
2018-05-06T15:13:53.211Z,19.99
2018-05-06T15:14:55.023Z,20.05
2018-05-06T15:15:56.832Z,19.95
2018-05-06T15:16:58.715Z,20.08
2018-05-06T15:18:00.610Z,20.14
2018-05-06T15:19:02.506Z,20.11
2018-05-06T15:20:16.675Z,20.10
2018-05-06T15:21:18.625Z,20.08
2018-05-06T15:22:20.430Z,20.01
2018-05-06T15:23:22.306Z,19.88
2018-05-06T15:24:24.122Z,19.86
2018-05-06T15:25:25.942Z,19.91
2018-05-06T15:26:27.832Z,19.84
2018-05-06T15:27:29.712Z,19.92
2018-05-06T15:28:31.599Z,19.88
2018-05-06T15:29:45.749Z,19.88
2018-05-06T15:30:47.645Z,19.83
2018-05-06T15:31:49.540Z,19.77
2018-05-06T15:32:51.413Z,19.76
2018-05-06T15:33:53.248Z,19.76
2018-05-06T15:34:55.059Z,19.73
2018-05-06T15:35:56.936Z,19.76
2018-05-06T15:36:58.812Z,19.71
2018-05-06T15:38:00.681Z,19.78
2018-05-06T15:39:14.830Z,19.95
2018-05-06T15:40:16.703Z,19.94
2018-05-06T15:41:18.677Z,19.94
2018-05-06T15:42:20.486Z,19.91
2018-05-06T15:43:22.334Z,19.84
2018-05-06T15:44:24.138Z,19.80
2018-05-06T15:45:26.035Z,19.76
2018-05-06T15:46:27.908Z,19.76
2018-05-06T15:47:29.802Z,19.74
2018-05-06T15:48:43.975Z,19.65
2018-05-06T15:49:45.844Z,19.73
2018-05-06T15:50:47.723Z,19.74
2018-05-06T15:51:49.851Z,19.88
2018-05-06T15:52:51.664Z,19.87
2018-05-06T15:53:53.500Z,19.91
2018-05-06T15:54:55.378Z,19.95
2018-05-06T15:55:57.270Z,20.10
2018-05-06T15:56:59.105Z,20.02
2018-05-06T15:58:13.252Z,20.06
2018-05-06T15:59:15.126Z,20.11
2018-05-06T16:00:17.036Z,20.02
2018-05-06T16:01:18.927Z,20.06
2018-05-06T16:02:20.737Z,20.13
2018-05-06T16:03:22.551Z,20.14
2018-05-06T16:04:24.425Z,20.14
2018-05-06T16:05:26.327Z,20.06
2018-05-06T16:06:28.272Z,19.99
2018-05-06T16:07:42.379Z,19.98
2018-05-06T16:08:44.253Z,19.92
2018-05-06T16:09:46.149Z,19.99
2018-05-06T16:10:48.023Z,20.02
2018-05-06T16:11:49.828Z,20.06
2018-05-06T16:12:51.644Z,19.94
2018-05-06T16:13:53.519Z,19.96
2018-05-06T16:14:55.395Z,20.02
2018-05-06T16:15:57.299Z,19.92
2018-05-06T16:17:11.436Z,19.92
2018-05-06T16:18:13.304Z,20.02
2018-05-06T16:19:15.180Z,20.01
2018-05-06T16:20:17.076Z,20.03
2018-05-06T16:21:18.912Z,19.96
2018-05-06T16:22:20.820Z,19.91
2018-05-06T16:23:22.599Z,19.87
2018-05-06T16:24:24.472Z,19.87
2018-05-06T16:25:26.366Z,19.98
2018-05-06T16:26:40.623Z,19.96
2018-05-06T16:27:42.411Z,20.01
2018-05-06T16:28:44.308Z,20.05
2018-05-06T16:29:46.185Z,20.01
2018-05-06T16:30:48.022Z,20.11
2018-05-06T16:31:49.836Z,20.08
2018-05-06T16:32:51.729Z,20.24
2018-05-06T16:33:53.609Z,20.18
2018-05-06T16:34:55.500Z,20.33
2018-05-06T16:36:09.646Z,20.39
2018-05-06T16:37:11.522Z,20.47
2018-05-06T16:38:13.393Z,20.55
2018-05-06T16:39:15.267Z,20.62
2018-05-06T16:40:17.076Z,20.69
2018-05-06T16:41:18.915Z,20.82
2018-05-06T16:42:20.781Z,20.91
2018-05-06T16:43:22.662Z,20.95
2018-05-06T16:44:24.551Z,20.95
2018-05-06T16:45:38.700Z,20.99
2018-05-06T16:46:40.569Z,21.14
2018-05-06T16:47:42.673Z,21.29
2018-05-06T16:48:44.540Z,21.43
2018-05-06T16:49:46.379Z,21.54
2018-05-06T16:50:48.218Z,21.75
2018-05-06T16:51:50.110Z,22.10
2018-05-06T16:52:51.987Z,22.17
2018-05-06T16:53:53.879Z,22.24
2018-05-06T16:55:08.028Z,22.25
2018-05-06T16:56:09.899Z,22.31
2018-05-06T16:57:11.771Z,22.31
2018-05-06T16:58:13.646Z,22.51
2018-05-06T16:59:15.463Z,22.46
2018-05-06T17:00:17.271Z,22.57
2018-05-06T17:01:19.157Z,22.65
2018-05-06T17:02:21.047Z,22.70
2018-05-06T17:03:22.922Z,22.58
2018-05-06T17:04:37.076Z,22.54
2018-05-06T17:05:38.992Z,22.75
2018-05-06T17:06:40.894Z,22.80
2018-05-06T17:07:42.785Z,22.85
2018-05-06T17:08:44.624Z,22.85
2018-05-06T17:09:46.456Z,22.97
2018-05-06T17:10:48.336Z,22.97
2018-05-06T17:11:50.208Z,22.94
2018-05-06T17:12:52.144Z,23.12
2018-05-06T17:14:06.297Z,23.36
2018-05-06T17:15:08.171Z,23.42
2018-05-06T17:16:10.072Z,23.54
2018-05-06T17:17:11.943Z,23.53
2018-05-06T17:18:13.782Z,23.50
2018-05-06T17:19:15.615Z,23.57
2018-05-06T17:20:17.502Z,23.65
2018-05-06T17:21:19.366Z,23.75
2018-05-06T17:22:21.237Z,23.73
2018-05-06T17:23:35.441Z,23.78
2018-05-06T17:24:37.341Z,23.72
2018-05-06T17:25:39.239Z,23.63
2018-05-06T17:26:41.135Z,23.61
2018-05-06T17:27:42.969Z,23.63
2018-05-06T17:28:44.804Z,23.55
2018-05-06T17:29:46.684Z,23.55
2018-05-06T17:30:48.580Z,23.50
2018-05-06T17:31:50.479Z,23.54
2018-05-06T17:33:04.703Z,23.55
2018-05-06T17:34:06.493Z,23.60
2018-05-06T17:35:08.371Z,23.51
2018-05-06T17:36:10.264Z,23.58
2018-05-06T17:37:12.080Z,23.48
2018-05-06T17:38:13.894Z,23.51
2018-05-06T17:39:15.774Z,23.40
2018-05-06T17:40:17.672Z,23.43
2018-05-06T17:41:19.566Z,23.51
2018-05-06T17:42:33.715Z,23.57
2018-05-06T17:43:35.589Z,23.61
2018-05-06T17:44:37.466Z,23.75
2018-05-06T17:45:39.562Z,23.76
2018-05-06T17:46:41.401Z,23.75
2018-05-06T17:47:43.234Z,23.66
2018-05-06T17:48:45.106Z,23.66
2018-05-06T17:49:46.985Z,23.47
2018-05-06T17:50:48.880Z,23.43
2018-05-06T17:52:03.027Z,23.25
2018-05-06T17:53:04.908Z,23.12
2018-05-06T17:54:06.794Z,23.19
2018-05-06T17:55:08.684Z,23.00
2018-05-06T17:56:10.515Z,22.90
2018-05-06T17:57:12.333Z,22.79
2018-05-06T17:58:14.206Z,22.76
2018-05-06T17:59:16.076Z,22.64
2018-05-06T18:00:17.951Z,22.57
2018-05-06T18:01:32.128Z,22.45
2018-05-06T18:02:34.020Z,22.28
2018-05-06T18:03:35.911Z,22.12
2018-05-06T18:04:37.852Z,22.02
2018-05-06T18:05:39.673Z,22.03
2018-05-06T18:06:41.506Z,21.96
2018-05-06T18:07:43.401Z,21.96
2018-05-06T18:08:45.277Z,21.75
2018-05-06T18:09:47.171Z,21.67
2018-05-06T18:11:01.322Z,21.49
2018-05-06T18:12:03.215Z,21.46
2018-05-06T18:13:05.095Z,21.34
2018-05-06T18:14:06.990Z,21.29
2018-05-06T18:15:08.823Z,21.16
2018-05-06T18:16:10.637Z,20.98
2018-05-06T18:17:12.513Z,20.82
2018-05-06T18:18:14.384Z,20.67
2018-05-06T18:19:16.252Z,20.52
2018-05-06T18:20:30.397Z,20.17
2018-05-06T18:21:32.303Z,20.08
2018-05-06T18:22:34.323Z,19.86
2018-05-06T18:23:36.138Z,19.74
2018-05-06T18:24:38.067Z,19.61
2018-05-06T18:25:39.815Z,19.43
2018-05-06T18:26:41.695Z,19.32
2018-05-06T18:27:43.566Z,19.14
2018-05-06T18:28:45.437Z,19.08
2018-05-06T18:29:59.577Z,18.98
2018-05-06T18:31:01.451Z,18.90
2018-05-06T18:32:03.347Z,18.82
2018-05-06T18:33:05.220Z,18.81
2018-05-06T18:34:07.051Z,18.73
2018-05-06T18:35:08.853Z,18.67
2018-05-06T18:36:10.733Z,18.65
2018-05-06T18:37:12.626Z,18.67
2018-05-06T18:38:14.519Z,18.50
2018-05-06T18:39:28.665Z,18.41
2018-05-06T18:40:30.551Z,18.47
2018-05-06T18:41:32.447Z,18.33
2018-05-06T18:42:34.330Z,18.25
2018-05-06T18:43:36.141Z,18.30
2018-05-06T18:44:37.967Z,18.15
2018-05-06T18:45:39.834Z,18.14
2018-05-06T18:46:41.751Z,18.17
2018-05-06T18:47:43.588Z,18.12
2018-05-06T18:48:57.755Z,18.18
2018-05-06T18:49:59.709Z,18.11
2018-05-06T18:51:01.573Z,18.12
2018-05-06T18:52:03.444Z,18.02
2018-05-06T18:53:05.271Z,18.11
2018-05-06T18:54:07.081Z,18.07
2018-05-06T18:55:08.976Z,17.97
2018-05-06T18:56:10.866Z,17.93
2018-05-06T18:57:12.733Z,17.92
2018-05-06T18:58:26.877Z,17.93
2018-05-06T18:59:28.767Z,17.99
2018-05-06T19:00:30.643Z,17.93
2018-05-06T19:01:32.522Z,17.78
2018-05-06T19:02:34.393Z,17.84
2018-05-06T19:03:36.149Z,17.86
2018-05-06T19:04:38.017Z,17.84
2018-05-06T19:05:39.911Z,17.78
2018-05-06T19:06:41.770Z,17.70
2018-05-06T19:07:55.905Z,17.68
2018-05-06T19:08:57.790Z,17.66
2018-05-06T19:09:59.677Z,17.68
2018-05-06T19:11:01.554Z,17.70
2018-05-06T19:12:03.364Z,17.66
2018-05-06T19:13:05.200Z,17.64
2018-05-06T19:14:07.083Z,17.58
2018-05-06T19:15:08.972Z,17.56
2018-05-06T19:16:10.859Z,17.52
2018-05-06T19:17:25.027Z,17.49
2018-05-06T19:18:26.915Z,17.44
2018-05-06T19:19:29.005Z,17.46
2018-05-06T19:20:30.892Z,17.40
2018-05-06T19:21:32.700Z,17.43
2018-05-06T19:22:34.534Z,17.33
2018-05-06T19:23:36.416Z,17.33
2018-05-06T19:24:38.287Z,17.33
2018-05-06T19:25:40.175Z,17.23
2018-05-06T19:26:54.310Z,17.30
2018-05-06T19:27:56.173Z,17.18
2018-05-06T19:28:58.042Z,17.14
2018-05-06T19:29:59.915Z,17.14
2018-05-06T19:31:01.745Z,17.01
2018-05-06T19:32:03.548Z,17.08
2018-05-06T19:33:05.431Z,16.97
2018-05-06T19:34:07.298Z,16.96
2018-05-06T19:35:09.168Z,16.94
2018-05-06T19:36:23.307Z,16.97
2018-05-06T19:37:25.194Z,16.91
2018-05-06T19:38:27.060Z,16.86
2018-05-06T19:39:28.932Z,16.83
2018-05-06T19:40:30.798Z,16.83
2018-05-06T19:41:33.344Z,16.83
